Worcester Regional Airport Worcester US
ICAO: KORH
IATA: ORH
Category: Medium
Scheduled Services: No

Elevation: 1009 ft
TransAlt. 18000 ft.

Airport Communications:
BRADLEY APP/DEP:119
ATIS:126.55
CLNC DEL:128.65
CTAF:120.5
GND:123.85
BRIDGEPORT RDO:122.2
TWR:120.5
UNICOM:122.95

KORH Zoom In..

If you have problems with the map follow the link
https://www.worldairports.se/pages/airport.php?
ICAO=KORH

Runways:

(A) RW 11 length 7001 ft width 150 ft
ILS 110.90 / hdg 109

(B) RW 15 length 5000 ft width 100 ft
---- / hdg 153

(C) RW 29 length 7001 ft width 150 ft
ILS 110.90 / hdg 289

(D) RW 33 length 5000 ft width 100 ft
---- / hdg 333

Location; KORH
Day. 25 / Time. 09.30 Zulu
* Altimeter: 30.26
* Temperature: 01° c. 33.8°f.
* Wind from: 030° Speed 07 kn.
Dewpoint: -01° c.
Visibility: 10 Statute Miles.
Clouds: Overcast 1400 ft.

KORH 250930Z AUTO 03007KT 10SM OVC014 01/M01 A3026 RMK AO2 T00061006


Wind From 030°
Speed 07 kn.

 
 
jpsmedia worldairports.se 2020   terms of use